sensor_id;sensor_type;location;lat;lon;timestamp;P1;durP1;ratioP1;P2;durP2;ratioP2
12302;SDS011;6214;48.012;7.862;2023-02-13T00:00:30;23.58;;;11.77;;
12302;SDS011;6214;48.012;7.862;2023-02-13T00:02:58;23.70;;;11.02;;
12302;SDS011;6214;48.012;7.862;2023-02-13T00:05:24;21.50;;;10.05;;
12302;SDS011;6214;48.012;7.862;2023-02-13T00:07:51;22.60;;;11.10;;
12302;SDS011;6214;48.012;7.862;2023-02-13T00:10:18;21.90;;;10.20;;
12302;SDS011;6214;48.012;7.862;2023-02-13T00:12:45;23.05;;;10.80;;
12302;SDS011;6214;48.012;7.862;2023-02-13T00:15:12;21.75;;;10.60;;
12302;SDS011;6214;48.012;7.862;2023-02-13T00:17:39;22.08;;;10.30;;
12302;SDS011;6214;48.012;7.862;2023-02-13T00:20:06;21.83;;;10.30;;
12302;SDS011;6214;48.012;7.862;2023-02-13T00:22:34;21.70;;;10.00;;
12302;SDS011;6214;48.012;7.862;2023-02-13T00:25:04;22.63;;;10.35;;
12302;SDS011;6214;48.012;7.862;2023-02-13T00:27:31;21.38;;;10.02;;
12302;SDS011;6214;48.012;7.862;2023-02-13T00:29:59;21.98;;;11.10;;
12302;SDS011;6214;48.012;7.862;2023-02-13T00:32:25;21.65;;;10.40;;
12302;SDS011;6214;48.012;7.862;2023-02-13T00:34:52;22.08;;;11.00;;
12302;SDS011;6214;48.012;7.862;2023-02-13T00:37:19;22.20;;;10.40;;
12302;SDS011;6214;48.012;7.862;2023-02-13T00:39:46;21.30;;;9.77;;
12302;SDS011;6214;48.012;7.862;2023-02-13T00:42:12;22.05;;;10.35;;
12302;SDS011;6214;48.012;7.862;2023-02-13T00:44:39;21.92;;;10.20;;
12302;SDS011;6214;48.012;7.862;2023-02-13T00:47:06;21.15;;;9.70;;
12302;SDS011;6214;48.012;7.862;2023-02-13T00:49:33;21.10;;;10.10;;
12302;SDS011;6214;48.012;7.862;2023-02-13T00:52:00;21.00;;;10.07;;
12302;SDS011;6214;48.012;7.862;2023-02-13T00:54:26;21.35;;;9.82;;
12302;SDS011;6214;48.012;7.862;2023-02-13T00:56:53;22.13;;;10.60;;
12302;SDS011;6214;48.012;7.862;2023-02-13T00:59:20;22.35;;;10.95;;
12302;SDS011;6214;48.012;7.862;2023-02-13T01:01:47;21.67;;;9.75;;
12302;SDS011;6214;48.012;7.862;2023-02-13T01:04:14;21.20;;;9.90;;
12302;SDS011;6214;48.012;7.862;2023-02-13T01:06:41;21.33;;;10.38;;
12302;SDS011;6214;48.012;7.862;2023-02-13T01:09:07;21.60;;;10.52;;
12302;SDS011;6214;48.012;7.862;2023-02-13T01:11:34;22.30;;;10.35;;
12302;SDS011;6214;48.012;7.862;2023-02-13T01:14:01;21.23;;;10.00;;
12302;SDS011;6214;48.012;7.862;2023-02-13T01:16:28;22.75;;;10.77;;
12302;SDS011;6214;48.012;7.862;2023-02-13T01:18:54;23.60;;;11.43;;
12302;SDS011;6214;48.012;7.862;2023-02-13T01:21:21;22.73;;;10.60;;
12302;SDS011;6214;48.012;7.862;2023-02-13T01:23:49;22.85;;;10.85;;
12302;SDS011;6214;48.012;7.862;2023-02-13T01:26:21;24.50;;;12.65;;
12302;SDS011;6214;48.012;7.862;2023-02-13T01:28:53;23.63;;;12.77;;
12302;SDS011;6214;48.012;7.862;2023-02-13T01:31:20;23.90;;;13.30;;
12302;SDS011;6214;48.012;7.862;2023-02-13T01:33:48;24.67;;;12.95;;
12302;SDS011;6214;48.012;7.862;2023-02-13T01:36:14;24.63;;;12.30;;
12302;SDS011;6214;48.012;7.862;2023-02-13T01:38:41;24.80;;;13.60;;
12302;SDS011;6214;48.012;7.862;2023-02-13T01:41:08;24.42;;;13.10;;
12302;SDS011;6214;48.012;7.862;2023-02-13T01:44:43;24.05;;;12.70;;
12302;SDS011;6214;48.012;7.862;2023-02-13T01:46:34;25.20;;;13.65;;
12302;SDS011;6214;48.012;7.862;2023-02-13T01:51:43;24.42;;;12.50;;
12302;SDS011;6214;48.012;7.862;2023-02-13T01:54:17;24.60;;;12.40;;
12302;SDS011;6214;48.012;7.862;2023-02-13T01:56:47;23.15;;;12.00;;
12302;SDS011;6214;48.012;7.862;2023-02-13T01:59:19;23.10;;;11.80;;
12302;SDS011;6214;48.012;7.862;2023-02-13T02:01:50;25.37;;;13.40;;
12302;SDS011;6214;48.012;7.862;2023-02-13T02:04:33;24.30;;;12.85;;
12302;SDS011;6214;48.012;7.862;2023-02-13T02:07:04;25.15;;;13.50;;
12302;SDS011;6214;48.012;7.862;2023-02-13T02:09:36;24.13;;;13.30;;
12302;SDS011;6214;48.012;7.862;2023-02-13T02:12:08;24.13;;;12.57;;
12302;SDS011;6214;48.012;7.862;2023-02-13T02:14:47;24.25;;;12.95;;
12302;SDS011;6214;48.012;7.862;2023-02-13T02:17:16;23.40;;;12.20;;
12302;SDS011;6214;48.012;7.862;2023-02-13T02:39:52;23.85;;;12.52;;
12302;SDS011;6214;48.012;7.862;2023-02-13T02:45:04;24.00;;;12.10;;
12302;SDS011;6214;48.012;7.862;2023-02-13T02:50:32;24.02;;;12.95;;
12302;SDS011;6214;48.012;7.862;2023-02-13T02:53:22;24.00;;;12.32;;
12302;SDS011;6214;48.012;7.862;2023-02-13T02:56:13;24.60;;;12.27;;
12302;SDS011;6214;48.012;7.862;2023-02-13T03:01:39;24.30;;;13.35;;
12302;SDS011;6214;48.012;7.862;2023-02-13T03:04:27;24.42;;;13.00;;
12302;SDS011;6214;48.012;7.862;2023-02-13T03:07:20;24.50;;;12.95;;
12302;SDS011;6214;48.012;7.862;2023-02-13T03:09:48;24.60;;;13.18;;
12302;SDS011;6214;48.012;7.862;2023-02-13T03:12:49;27.13;;;14.50;;
12302;SDS011;6214;48.012;7.862;2023-02-13T03:15:53;25.57;;;14.17;;
12302;SDS011;6214;48.012;7.862;2023-02-13T03:18:50;24.25;;;13.25;;
12302;SDS011;6214;48.012;7.862;2023-02-13T03:21:47;23.90;;;12.63;;
12302;SDS011;6214;48.012;7.862;2023-02-13T03:27:15;24.80;;;13.70;;
12302;SDS011;6214;48.012;7.862;2023-02-13T03:33:56;25.40;;;13.52;;
12302;SDS011;6214;48.012;7.862;2023-02-13T03:36:32;26.55;;;14.23;;
12302;SDS011;6214;48.012;7.862;2023-02-13T03:42:07;24.65;;;13.75;;
12302;SDS011;6214;48.012;7.862;2023-02-13T03:44:48;24.85;;;12.95;;
12302;SDS011;6214;48.012;7.862;2023-02-13T03:47:46;25.75;;;13.02;;
12302;SDS011;6214;48.012;7.862;2023-02-13T03:50:16;25.10;;;13.97;;
12302;SDS011;6214;48.012;7.862;2023-02-13T03:52:46;26.20;;;13.90;;
12302;SDS011;6214;48.012;7.862;2023-02-13T03:55:19;25.50;;;13.88;;
12302;SDS011;6214;48.012;7.862;2023-02-13T03:58:15;25.55;;;13.52;;
12302;SDS011;6214;48.012;7.862;2023-02-13T04:01:09;26.27;;;13.85;;
12302;SDS011;6214;48.012;7.862;2023-02-13T04:03:50;25.13;;;13.65;;
12302;SDS011;6214;48.012;7.862;2023-02-13T04:06:56;24.98;;;13.50;;
12302;SDS011;6214;48.012;7.862;2023-02-13T04:09:25;25.70;;;13.40;;
12302;SDS011;6214;48.012;7.862;2023-02-13T04:17:38;24.77;;;13.43;;
12302;SDS011;6214;48.012;7.862;2023-02-13T04:20:15;25.80;;;13.10;;
12302;SDS011;6214;48.012;7.862;2023-02-13T04:22:43;26.53;;;13.97;;
12302;SDS011;6214;48.012;7.862;2023-02-13T04:25:11;26.10;;;13.57;;
12302;SDS011;6214;48.012;7.862;2023-02-13T04:27:40;25.60;;;13.95;;
12302;SDS011;6214;48.012;7.862;2023-02-13T04:30:07;26.05;;;13.80;;
12302;SDS011;6214;48.012;7.862;2023-02-13T04:32:35;24.92;;;13.30;;
12302;SDS011;6214;48.012;7.862;2023-02-13T04:35:01;24.52;;;13.52;;
12302;SDS011;6214;48.012;7.862;2023-02-13T04:37:29;25.88;;;13.45;;
12302;SDS011;6214;48.012;7.862;2023-02-13T04:39:55;25.33;;;13.10;;
12302;SDS011;6214;48.012;7.862;2023-02-13T04:42:22;26.40;;;13.80;;
12302;SDS011;6214;48.012;7.862;2023-02-13T04:44:49;26.38;;;13.68;;
12302;SDS011;6214;48.012;7.862;2023-02-13T04:47:16;24.70;;;13.02;;
12302;SDS011;6214;48.012;7.862;2023-02-13T04:49:42;24.80;;;12.80;;
12302;SDS011;6214;48.012;7.862;2023-02-13T04:52:09;25.60;;;13.65;;
12302;SDS011;6214;48.012;7.862;2023-02-13T04:54:36;27.70;;;14.85;;
12302;SDS011;6214;48.012;7.862;2023-02-13T04:57:02;25.70;;;13.90;;
12302;SDS011;6214;48.012;7.862;2023-02-13T04:59:29;24.67;;;13.80;;
12302;SDS011;6214;48.012;7.862;2023-02-13T05:01:56;24.60;;;13.85;;
12302;SDS011;6214;48.012;7.862;2023-02-13T05:04:24;26.30;;;14.50;;
12302;SDS011;6214;48.012;7.862;2023-02-13T05:06:51;26.30;;;14.02;;
12302;SDS011;6214;48.012;7.862;2023-02-13T05:09:17;27.30;;;14.65;;
12302;SDS011;6214;48.012;7.862;2023-02-13T05:11:44;26.48;;;14.57;;
12302;SDS011;6214;48.012;7.862;2023-02-13T05:14:11;26.50;;;14.10;;
12302;SDS011;6214;48.012;7.862;2023-02-13T05:16:38;27.80;;;15.23;;
12302;SDS011;6214;48.012;7.862;2023-02-13T05:19:05;26.90;;;14.80;;
12302;SDS011;6214;48.012;7.862;2023-02-13T05:21:31;27.13;;;15.47;;
12302;SDS011;6214;48.012;7.862;2023-02-13T05:24:17;27.40;;;15.90;;
12302;SDS011;6214;48.012;7.862;2023-02-13T05:26:45;27.85;;;15.77;;
12302;SDS011;6214;48.012;7.862;2023-02-13T05:29:12;28.83;;;16.05;;
12302;SDS011;6214;48.012;7.862;2023-02-13T05:31:46;28.13;;;15.80;;
12302;SDS011;6214;48.012;7.862;2023-02-13T05:34:22;29.65;;;16.70;;
12302;SDS011;6214;48.012;7.862;2023-02-13T05:36:50;28.88;;;16.85;;
12302;SDS011;6214;48.012;7.862;2023-02-13T05:39:17;28.33;;;16.27;;
12302;SDS011;6214;48.012;7.862;2023-02-13T05:41:44;28.48;;;15.40;;
12302;SDS011;6214;48.012;7.862;2023-02-13T05:44:12;29.60;;;16.10;;
12302;SDS011;6214;48.012;7.862;2023-02-13T05:46:39;27.70;;;15.60;;
12302;SDS011;6214;48.012;7.862;2023-02-13T05:49:08;27.85;;;15.50;;
12302;SDS011;6214;48.012;7.862;2023-02-13T05:51:36;27.70;;;15.80;;
12302;SDS011;6214;48.012;7.862;2023-02-13T05:54:03;28.03;;;15.87;;
12302;SDS011;6214;48.012;7.862;2023-02-13T05:56:30;28.80;;;16.40;;
12302;SDS011;6214;48.012;7.862;2023-02-13T05:58:57;28.40;;;14.88;;
12302;SDS011;6214;48.012;7.862;2023-02-13T06:01:24;28.15;;;15.00;;
12302;SDS011;6214;48.012;7.862;2023-02-13T06:03:51;28.35;;;15.20;;
12302;SDS011;6214;48.012;7.862;2023-02-13T06:06:18;28.23;;;15.70;;
12302;SDS011;6214;48.012;7.862;2023-02-13T06:08:45;28.48;;;16.17;;
12302;SDS011;6214;48.012;7.862;2023-02-13T06:11:12;26.47;;;14.57;;
12302;SDS011;6214;48.012;7.862;2023-02-13T06:13:38;26.03;;;14.03;;
12302;SDS011;6214;48.012;7.862;2023-02-13T06:16:10;26.35;;;13.93;;
12302;SDS011;6214;48.012;7.862;2023-02-13T06:18:38;26.50;;;14.30;;
12302;SDS011;6214;48.012;7.862;2023-02-13T06:21:05;26.52;;;14.52;;
12302;SDS011;6214;48.012;7.862;2023-02-13T06:23:32;27.10;;;14.63;;
12302;SDS011;6214;48.012;7.862;2023-02-13T06:26:06;26.17;;;13.43;;
12302;SDS011;6214;48.012;7.862;2023-02-13T06:28:34;25.52;;;13.70;;
12302;SDS011;6214;48.012;7.862;2023-02-13T06:31:01;26.10;;;14.10;;
12302;SDS011;6214;48.012;7.862;2023-02-13T06:33:28;26.70;;;14.35;;
12302;SDS011;6214;48.012;7.862;2023-02-13T06:35:54;24.98;;;13.77;;
12302;SDS011;6214;48.012;7.862;2023-02-13T06:38:21;26.45;;;13.90;;
12302;SDS011;6214;48.012;7.862;2023-02-13T06:40:50;26.75;;;13.82;;
12302;SDS011;6214;48.012;7.862;2023-02-13T06:43:17;25.42;;;13.27;;
12302;SDS011;6214;48.012;7.862;2023-02-13T06:45:44;25.52;;;13.55;;
12302;SDS011;6214;48.012;7.862;2023-02-13T06:48:12;25.55;;;13.15;;
12302;SDS011;6214;48.012;7.862;2023-02-13T06:50:39;25.25;;;12.60;;
12302;SDS011;6214;48.012;7.862;2023-02-13T06:53:06;24.83;;;13.32;;
12302;SDS011;6214;48.012;7.862;2023-02-13T06:55:34;25.27;;;13.55;;
12302;SDS011;6214;48.012;7.862;2023-02-13T06:58:01;26.58;;;13.38;;
12302;SDS011;6214;48.012;7.862;2023-02-13T07:00:28;25.88;;;13.48;;
12302;SDS011;6214;48.012;7.862;2023-02-13T07:02:59;26.25;;;12.93;;
12302;SDS011;6214;48.012;7.862;2023-02-13T07:05:31;24.20;;;12.55;;
12302;SDS011;6214;48.012;7.862;2023-02-13T07:07:58;25.10;;;12.77;;
12302;SDS011;6214;48.012;7.862;2023-02-13T07:10:25;24.88;;;12.85;;
12302;SDS011;6214;48.012;7.862;2023-02-13T07:12:52;25.03;;;13.50;;
12302;SDS011;6214;48.012;7.862;2023-02-13T07:15:34;24.38;;;12.30;;
12302;SDS011;6214;48.012;7.862;2023-02-13T07:18:01;24.80;;;12.80;;
12302;SDS011;6214;48.012;7.862;2023-02-13T07:20:29;25.27;;;13.00;;
12302;SDS011;6214;48.012;7.862;2023-02-13T07:22:57;25.58;;;12.98;;
12302;SDS011;6214;48.012;7.862;2023-02-13T07:25:25;25.52;;;12.73;;
12302;SDS011;6214;48.012;7.862;2023-02-13T07:27:52;24.95;;;13.77;;
12302;SDS011;6214;48.012;7.862;2023-02-13T07:30:19;27.10;;;13.95;;
12302;SDS011;6214;48.012;7.862;2023-02-13T07:32:46;26.05;;;13.48;;
12302;SDS011;6214;48.012;7.862;2023-02-13T07:35:12;24.73;;;13.32;;
12302;SDS011;6214;48.012;7.862;2023-02-13T07:37:39;25.83;;;12.90;;
12302;SDS011;6214;48.012;7.862;2023-02-13T07:40:06;25.08;;;12.95;;
12302;SDS011;6214;48.012;7.862;2023-02-13T07:42:34;24.45;;;13.10;;
12302;SDS011;6214;48.012;7.862;2023-02-13T07:45:00;25.90;;;13.98;;
12302;SDS011;6214;48.012;7.862;2023-02-13T07:47:31;24.80;;;13.20;;
12302;SDS011;6214;48.012;7.862;2023-02-13T07:49:59;26.00;;;14.50;;
12302;SDS011;6214;48.012;7.862;2023-02-13T07:52:27;25.00;;;12.85;;
12302;SDS011;6214;48.012;7.862;2023-02-13T07:54:54;24.90;;;12.98;;
12302;SDS011;6214;48.012;7.862;2023-02-13T07:57:20;25.48;;;13.68;;
12302;SDS011;6214;48.012;7.862;2023-02-13T07:59:47;25.95;;;14.10;;
12302;SDS011;6214;48.012;7.862;2023-02-13T08:02:14;25.13;;;13.32;;
12302;SDS011;6214;48.012;7.862;2023-02-13T08:04:41;27.05;;;14.05;;
12302;SDS011;6214;48.012;7.862;2023-02-13T08:07:15;25.50;;;12.85;;
12302;SDS011;6214;48.012;7.862;2023-02-13T08:09:43;23.60;;;12.80;;
12302;SDS011;6214;48.012;7.862;2023-02-13T08:12:30;25.27;;;12.90;;
12302;SDS011;6214;48.012;7.862;2023-02-13T08:14:58;25.90;;;13.35;;
12302;SDS011;6214;48.012;7.862;2023-02-13T08:17:24;27.02;;;16.10;;
12302;SDS011;6214;48.012;7.862;2023-02-13T08:19:51;28.27;;;16.50;;
12302;SDS011;6214;48.012;7.862;2023-02-13T08:22:18;26.57;;;15.60;;
12302;SDS011;6214;48.012;7.862;2023-02-13T08:24:45;26.75;;;14.60;;
12302;SDS011;6214;48.012;7.862;2023-02-13T08:27:12;27.13;;;16.20;;
12302;SDS011;6214;48.012;7.862;2023-02-13T08:29:39;27.30;;;15.40;;
12302;SDS011;6214;48.012;7.862;2023-02-13T08:32:06;26.27;;;15.90;;
12302;SDS011;6214;48.012;7.862;2023-02-13T08:34:33;26.97;;;16.20;;
12302;SDS011;6214;48.012;7.862;2023-02-13T08:37:01;29.40;;;19.13;;
12302;SDS011;6214;48.012;7.862;2023-02-13T08:39:28;28.73;;;19.85;;
12302;SDS011;6214;48.012;7.862;2023-02-13T08:41:54;30.42;;;19.98;;
12302;SDS011;6214;48.012;7.862;2023-02-13T08:44:21;31.52;;;21.35;;
12302;SDS011;6214;48.012;7.862;2023-02-13T08:46:48;29.95;;;20.48;;
12302;SDS011;6214;48.012;7.862;2023-02-13T08:49:15;29.20;;;18.52;;
12302;SDS011;6214;48.012;7.862;2023-02-13T08:51:42;28.08;;;17.70;;
12302;SDS011;6214;48.012;7.862;2023-02-13T08:54:09;27.65;;;17.17;;
12302;SDS011;6214;48.012;7.862;2023-02-13T08:56:36;28.63;;;18.25;;
12302;SDS011;6214;48.012;7.862;2023-02-13T08:59:02;27.17;;;17.40;;
12302;SDS011;6214;48.012;7.862;2023-02-13T09:01:29;28.27;;;17.00;;
12302;SDS011;6214;48.012;7.862;2023-02-13T09:03:56;28.85;;;17.30;;
12302;SDS011;6214;48.012;7.862;2023-02-13T09:06:23;28.25;;;16.75;;
12302;SDS011;6214;48.012;7.862;2023-02-13T09:08:51;28.88;;;18.52;;
12302;SDS011;6214;48.012;7.862;2023-02-13T09:11:18;27.42;;;17.00;;
12302;SDS011;6214;48.012;7.862;2023-02-13T09:13:49;28.53;;;17.60;;
12302;SDS011;6214;48.012;7.862;2023-02-13T09:16:18;28.13;;;16.83;;
12302;SDS011;6214;48.012;7.862;2023-02-13T09:18:49;26.77;;;16.30;;
12302;SDS011;6214;48.012;7.862;2023-02-13T09:21:17;28.83;;;18.02;;
12302;SDS011;6214;48.012;7.862;2023-02-13T09:23:45;27.33;;;16.70;;
12302;SDS011;6214;48.012;7.862;2023-02-13T09:26:13;26.58;;;16.70;;
12302;SDS011;6214;48.012;7.862;2023-02-13T09:28:41;28.77;;;18.67;;
12302;SDS011;6214;48.012;7.862;2023-02-13T09:31:10;30.42;;;18.92;;
12302;SDS011;6214;48.012;7.862;2023-02-13T09:33:40;31.30;;;20.33;;
12302;SDS011;6214;48.012;7.862;2023-02-13T09:36:12;30.20;;;19.50;;
12302;SDS011;6214;48.012;7.862;2023-02-13T09:38:41;32.17;;;20.80;;
12302;SDS011;6214;48.012;7.862;2023-02-13T09:41:17;30.58;;;19.63;;
12302;SDS011;6214;48.012;7.862;2023-02-13T09:44:15;30.60;;;20.13;;
12302;SDS011;6214;48.012;7.862;2023-02-13T09:50:16;32.45;;;20.70;;
12302;SDS011;6214;48.012;7.862;2023-02-13T09:52:48;33.70;;;21.40;;
12302;SDS011;6214;48.012;7.862;2023-02-13T09:55:18;31.83;;;20.92;;
12302;SDS011;6214;48.012;7.862;2023-02-13T10:01:21;35.50;;;22.60;;
12302;SDS011;6214;48.012;7.862;2023-02-13T10:06:42;32.00;;;20.25;;
12302;SDS011;6214;48.012;7.862;2023-02-13T10:09:22;33.47;;;21.67;;
12302;SDS011;6214;48.012;7.862;2023-02-13T10:12:14;32.90;;;21.02;;
12302;SDS011;6214;48.012;7.862;2023-02-13T10:14:51;30.65;;;20.35;;
12302;SDS011;6214;48.012;7.862;2023-02-13T10:17:34;32.95;;;22.10;;
12302;SDS011;6214;48.012;7.862;2023-02-13T10:20:06;34.85;;;23.52;;
12302;SDS011;6214;48.012;7.862;2023-02-13T10:22:45;33.17;;;22.45;;
12302;SDS011;6214;48.012;7.862;2023-02-13T10:25:20;32.72;;;21.80;;
12302;SDS011;6214;48.012;7.862;2023-02-13T10:27:54;34.30;;;21.77;;
12302;SDS011;6214;48.012;7.862;2023-02-13T10:30:40;32.75;;;20.52;;
12302;SDS011;6214;48.012;7.862;2023-02-13T10:33:21;31.15;;;20.33;;
12302;SDS011;6214;48.012;7.862;2023-02-13T10:38:31;31.70;;;20.90;;
12302;SDS011;6214;48.012;7.862;2023-02-13T10:47:02;31.95;;;19.67;;
12302;SDS011;6214;48.012;7.862;2023-02-13T11:03:16;31.92;;;19.10;;
12302;SDS011;6214;48.012;7.862;2023-02-13T11:05:45;30.77;;;19.75;;
12302;SDS011;6214;48.012;7.862;2023-02-13T11:10:45;30.83;;;20.70;;
12302;SDS011;6214;48.012;7.862;2023-02-13T11:13:16;31.00;;;19.03;;
12302;SDS011;6214;48.012;7.862;2023-02-13T11:16:01;30.42;;;18.70;;
12302;SDS011;6214;48.012;7.862;2023-02-13T11:18:34;28.95;;;18.90;;
12302;SDS011;6214;48.012;7.862;2023-02-13T11:21:12;30.17;;;19.75;;
12302;SDS011;6214;48.012;7.862;2023-02-13T11:23:53;30.00;;;19.38;;
12302;SDS011;6214;48.012;7.862;2023-02-13T11:26:23;30.50;;;19.17;;
12302;SDS011;6214;48.012;7.862;2023-02-13T11:28:57;29.90;;;18.33;;
12302;SDS011;6214;48.012;7.862;2023-02-13T11:31:28;30.45;;;20.00;;
12302;SDS011;6214;48.012;7.862;2023-02-13T11:33:58;29.50;;;17.58;;
12302;SDS011;6214;48.012;7.862;2023-02-13T11:36:43;29.30;;;18.50;;
12302;SDS011;6214;48.012;7.862;2023-02-13T11:39:20;30.40;;;19.80;;
12302;SDS011;6214;48.012;7.862;2023-02-13T11:41:48;29.73;;;19.65;;
12302;SDS011;6214;48.012;7.862;2023-02-13T11:44:20;28.88;;;19.20;;
12302;SDS011;6214;48.012;7.862;2023-02-13T11:46:55;30.95;;;19.33;;
12302;SDS011;6214;48.012;7.862;2023-02-13T11:49:25;30.02;;;19.02;;
12302;SDS011;6214;48.012;7.862;2023-02-13T11:52:00;30.33;;;19.25;;
12302;SDS011;6214;48.012;7.862;2023-02-13T11:54:30;30.60;;;19.00;;
12302;SDS011;6214;48.012;7.862;2023-02-13T11:56:59;32.40;;;21.10;;
12302;SDS011;6214;48.012;7.862;2023-02-13T11:59:47;30.65;;;19.92;;
12302;SDS011;6214;48.012;7.862;2023-02-13T12:02:23;31.53;;;20.17;;
12302;SDS011;6214;48.012;7.862;2023-02-13T12:07:43;30.40;;;19.37;;
12302;SDS011;6214;48.012;7.862;2023-02-13T12:12:58;30.25;;;19.40;;
12302;SDS011;6214;48.012;7.862;2023-02-13T12:15:34;31.45;;;20.50;;
12302;SDS011;6214;48.012;7.862;2023-02-13T12:18:22;30.70;;;19.98;;
12302;SDS011;6214;48.012;7.862;2023-02-13T12:23:52;30.63;;;19.92;;
12302;SDS011;6214;48.012;7.862;2023-02-13T12:34:26;29.98;;;19.75;;
12302;SDS011;6214;48.012;7.862;2023-02-13T12:37:11;31.27;;;20.17;;
12302;SDS011;6214;48.012;7.862;2023-02-13T12:43:06;30.48;;;19.98;;
12302;SDS011;6214;48.012;7.862;2023-02-13T12:45:40;29.55;;;19.60;;
12302;SDS011;6214;48.012;7.862;2023-02-13T13:04:49;30.30;;;18.98;;
12302;SDS011;6214;48.012;7.862;2023-02-13T13:12:35;30.80;;;19.50;;
12302;SDS011;6214;48.012;7.862;2023-02-13T13:20:51;30.77;;;19.80;;
12302;SDS011;6214;48.012;7.862;2023-02-13T13:23:30;31.20;;;21.20;;
12302;SDS011;6214;48.012;7.862;2023-02-13T13:26:04;31.50;;;20.52;;
12302;SDS011;6214;48.012;7.862;2023-02-13T13:28:41;30.20;;;19.00;;
12302;SDS011;6214;48.012;7.862;2023-02-13T13:31:11;32.20;;;20.70;;
12302;SDS011;6214;48.012;7.862;2023-02-13T13:33:40;32.90;;;20.80;;
12302;SDS011;6214;48.012;7.862;2023-02-13T13:36:12;30.83;;;20.58;;
12302;SDS011;6214;48.012;7.862;2023-02-13T13:41:14;32.33;;;21.80;;
12302;SDS011;6214;48.012;7.862;2023-02-13T13:52:09;32.15;;;20.73;;
12302;SDS011;6214;48.012;7.862;2023-02-13T13:54:48;32.40;;;21.98;;
12302;SDS011;6214;48.012;7.862;2023-02-13T13:58:01;33.03;;;22.85;;
12302;SDS011;6214;48.012;7.862;2023-02-13T14:02:40;33.30;;;23.10;;
12302;SDS011;6214;48.012;7.862;2023-02-13T14:07:49;35.00;;;24.25;;
12302;SDS011;6214;48.012;7.862;2023-02-13T14:18:01;33.00;;;21.90;;
12302;SDS011;6214;48.012;7.862;2023-02-13T14:25:45;33.10;;;22.90;;
12302;SDS011;6214;48.012;7.862;2023-02-13T14:28:22;34.03;;;23.75;;
12302;SDS011;6214;48.012;7.862;2023-02-13T14:31:03;33.75;;;23.08;;
12302;SDS011;6214;48.012;7.862;2023-02-13T14:33:34;34.90;;;23.50;;
12302;SDS011;6214;48.012;7.862;2023-02-13T14:36:02;34.60;;;24.00;;
12302;SDS011;6214;48.012;7.862;2023-02-13T14:38:33;34.55;;;24.00;;
12302;SDS011;6214;48.012;7.862;2023-02-13T14:41:01;32.90;;;22.25;;
12302;SDS011;6214;48.012;7.862;2023-02-13T14:43:48;35.10;;;23.50;;
12302;SDS011;6214;48.012;7.862;2023-02-13T14:47:00;33.80;;;22.98;;
12302;SDS011;6214;48.012;7.862;2023-02-13T14:49:16;35.08;;;24.48;;
12302;SDS011;6214;48.012;7.862;2023-02-13T14:51:50;33.33;;;21.80;;
12302;SDS011;6214;48.012;7.862;2023-02-13T14:57:15;34.28;;;22.92;;
12302;SDS011;6214;48.012;7.862;2023-02-13T14:59:45;34.45;;;24.27;;
12302;SDS011;6214;48.012;7.862;2023-02-13T15:02:21;32.85;;;22.20;;
12302;SDS011;6214;48.012;7.862;2023-02-13T15:04:54;35.05;;;24.58;;
12302;SDS011;6214;48.012;7.862;2023-02-13T15:07:25;34.88;;;23.30;;
12302;SDS011;6214;48.012;7.862;2023-02-13T15:16:00;36.13;;;24.67;;
12302;SDS011;6214;48.012;7.862;2023-02-13T15:18:41;35.87;;;25.00;;
12302;SDS011;6214;48.012;7.862;2023-02-13T15:21:18;35.10;;;23.00;;
12302;SDS011;6214;48.012;7.862;2023-02-13T15:23:48;35.47;;;23.73;;
12302;SDS011;6214;48.012;7.862;2023-02-13T15:26:21;34.55;;;23.98;;
12302;SDS011;6214;48.012;7.862;2023-02-13T15:28:59;35.15;;;24.77;;
12302;SDS011;6214;48.012;7.862;2023-02-13T15:31:50;35.53;;;23.65;;
12302;SDS011;6214;48.012;7.862;2023-02-13T15:34:19;33.97;;;22.70;;
12302;SDS011;6214;48.012;7.862;2023-02-13T15:36:54;36.35;;;25.10;;
12302;SDS011;6214;48.012;7.862;2023-02-13T15:39:23;35.10;;;24.50;;
12302;SDS011;6214;48.012;7.862;2023-02-13T15:41:58;36.17;;;24.80;;
12302;SDS011;6214;48.012;7.862;2023-02-13T15:44:36;35.78;;;24.58;;
12302;SDS011;6214;48.012;7.862;2023-02-13T15:47:06;34.83;;;23.83;;
12302;SDS011;6214;48.012;7.862;2023-02-13T15:49:46;36.22;;;23.98;;
12302;SDS011;6214;48.012;7.862;2023-02-13T15:52:20;34.15;;;23.73;;
12302;SDS011;6214;48.012;7.862;2023-02-13T15:54:59;34.92;;;23.70;;
12302;SDS011;6214;48.012;7.862;2023-02-13T15:57:27;35.78;;;24.15;;
12302;SDS011;6214;48.012;7.862;2023-02-13T15:59:54;36.15;;;23.70;;
12302;SDS011;6214;48.012;7.862;2023-02-13T16:02:33;36.45;;;23.83;;
12302;SDS011;6214;48.012;7.862;2023-02-13T16:05:08;35.00;;;22.42;;
12302;SDS011;6214;48.012;7.862;2023-02-13T16:07:48;35.88;;;25.38;;
12302;SDS011;6214;48.012;7.862;2023-02-13T16:12:51;34.35;;;23.35;;
12302;SDS011;6214;48.012;7.862;2023-02-13T16:15:20;36.80;;;24.52;;
12302;SDS011;6214;48.012;7.862;2023-02-13T16:17:48;37.55;;;24.92;;
12302;SDS011;6214;48.012;7.862;2023-02-13T16:20:16;36.23;;;23.87;;
12302;SDS011;6214;48.012;7.862;2023-02-13T16:23:20;37.63;;;25.23;;
12302;SDS011;6214;48.012;7.862;2023-02-13T16:25:42;37.33;;;24.60;;
12302;SDS011;6214;48.012;7.862;2023-02-13T16:28:25;37.40;;;25.30;;
12302;SDS011;6214;48.012;7.862;2023-02-13T16:33:26;37.63;;;26.30;;
12302;SDS011;6214;48.012;7.862;2023-02-13T16:35:55;38.38;;;26.33;;
12302;SDS011;6214;48.012;7.862;2023-02-13T17:02:29;42.93;;;30.00;;
12302;SDS011;6214;48.012;7.862;2023-02-13T17:10:09;43.38;;;30.67;;
12302;SDS011;6214;48.012;7.862;2023-02-13T17:12:43;43.10;;;29.63;;
12302;SDS011;6214;48.012;7.862;2023-02-13T17:15:12;43.78;;;30.77;;
12302;SDS011;6214;48.012;7.862;2023-02-13T17:17:42;46.58;;;33.05;;
12302;SDS011;6214;48.012;7.862;2023-02-13T17:20:13;44.05;;;31.00;;
12302;SDS011;6214;48.012;7.862;2023-02-13T17:22:43;45.70;;;31.27;;
12302;SDS011;6214;48.012;7.862;2023-02-13T17:25:18;44.15;;;30.70;;
12302;SDS011;6214;48.012;7.862;2023-02-13T17:27:50;43.35;;;30.75;;
12302;SDS011;6214;48.012;7.862;2023-02-13T17:30:20;44.90;;;31.25;;
12302;SDS011;6214;48.012;7.862;2023-02-13T17:32:49;47.23;;;32.40;;
12302;SDS011;6214;48.012;7.862;2023-02-13T17:35:22;46.93;;;33.33;;
12302;SDS011;6214;48.012;7.862;2023-02-13T17:37:49;47.55;;;33.30;;
12302;SDS011;6214;48.012;7.862;2023-02-13T17:40:16;50.13;;;34.53;;
12302;SDS011;6214;48.012;7.862;2023-02-13T17:42:47;48.72;;;33.10;;
12302;SDS011;6214;48.012;7.862;2023-02-13T17:45:18;48.80;;;34.47;;
12302;SDS011;6214;48.012;7.862;2023-02-13T17:47:46;47.30;;;33.65;;
12302;SDS011;6214;48.012;7.862;2023-02-13T17:50:13;48.20;;;34.05;;
12302;SDS011;6214;48.012;7.862;2023-02-13T17:52:40;47.42;;;34.05;;
12302;SDS011;6214;48.012;7.862;2023-02-13T17:55:20;52.00;;;36.28;;
12302;SDS011;6214;48.012;7.862;2023-02-13T17:57:50;50.40;;;34.70;;
12302;SDS011;6214;48.012;7.862;2023-02-13T18:00:20;55.15;;;38.20;;
12302;SDS011;6214;48.012;7.862;2023-02-13T18:02:48;56.38;;;36.58;;
12302;SDS011;6214;48.012;7.862;2023-02-13T18:05:17;55.47;;;37.30;;
12302;SDS011;6214;48.012;7.862;2023-02-13T18:07:44;55.50;;;37.33;;
12302;SDS011;6214;48.012;7.862;2023-02-13T18:10:13;66.07;;;38.60;;
12302;SDS011;6214;48.012;7.862;2023-02-13T18:12:45;80.50;;;37.05;;
12302;SDS011;6214;48.012;7.862;2023-02-13T18:15:13;68.63;;;38.45;;
12302;SDS011;6214;48.012;7.862;2023-02-13T18:17:40;69.28;;;36.92;;
12302;SDS011;6214;48.012;7.862;2023-02-13T18:20:09;76.93;;;38.15;;
12302;SDS011;6214;48.012;7.862;2023-02-13T18:22:40;107.28;;;36.75;;